AAL1849 KBOS-KDCA
Flight info
| Callsign | AAL1849 |
|---|---|
| Flight time | N/A |
| Altitude | 34000 |
| Route | SSOXS7 SSOXS Q167 ZIZZI KNUKK ATR LAFLN DEALE3 |
| Aircraft | B738/M-SDE2E3FGHIRWXY/LB1 |
Departure
| Time | 2026-05-05 23:19 |
|---|---|
| Airport | Boston Logan International Airport (KBOS) |
Arrival
| Time | N/A |
|---|---|
| Airport | Ronald Reagan Washington National Airport (KDCA) |
| Time | Latitude | Longitude | Altitude | Speed | Heading |
|---|---|---|---|---|---|
| 2026-05-05 22:55 | 42.36783 | -71.01729 | 25 ft | 0 kts | 214° |
| 2026-05-05 22:56 | 42.36783 | -71.01730 | 24 ft | 0 kts | 220° |
| 2026-05-05 23:03 | 42.36797 | -71.01713 | 28 ft | 4 kts | 220° |
| 2026-05-05 23:03 | 42.36817 | -71.01689 | 22 ft | 4 kts | 232° |
| 2026-05-05 23:03 | 42.36826 | -71.01661 | 26 ft | 4 kts | 290° |
| 2026-05-05 23:04 | 42.36825 | -71.01655 | 24 ft | 0 kts | 298° |
| 2026-05-05 23:11 | 42.36825 | -71.01656 | 22 ft | 1 kts | 298° |
| 2026-05-05 23:11 | 42.36851 | -71.01685 | 22 ft | 8 kts | 342° |
| 2026-05-05 23:11 | 42.36899 | -71.01665 | 26 ft | 6 kts | 31° |
| 2026-05-05 23:11 | 42.36951 | -71.01617 | 26 ft | 12 kts | 34° |
| 2026-05-05 23:12 | 42.36982 | -71.01524 | 28 ft | 15 kts | 115° |
| 2026-05-05 23:12 | 42.36936 | -71.01460 | 28 ft | 12 kts | 136° |
| 2026-05-05 23:12 | 42.36862 | -71.01354 | 28 ft | 17 kts | 130° |
| 2026-05-05 23:12 | 42.36878 | -71.01239 | 25 ft | 16 kts | 48° |
| 2026-05-05 23:13 | 42.36889 | -71.01224 | 25 ft | 0 kts | 45° |
| 2026-05-05 23:13 | 42.36903 | -71.01206 | 25 ft | 5 kts | 42° |
| 2026-05-05 23:13 | 42.36948 | -71.01152 | 24 ft | 15 kts | 38° |
| 2026-05-05 23:14 | 42.37047 | -71.01074 | 22 ft | 17 kts | 24° |
| 2026-05-05 23:14 | 42.37133 | -71.01018 | 21 ft | 8 kts | 27° |
| 2026-05-05 23:14 | 42.37179 | -71.00986 | 22 ft | 7 kts | 27° |
| 2026-05-05 23:14 | 42.37234 | -71.00949 | 21 ft | 14 kts | 26° |
| 2026-05-05 23:15 | 42.37358 | -71.00875 | 21 ft | 20 kts | 20° |
| 2026-05-05 23:15 | 42.37505 | -71.00805 | 23 ft | 24 kts | 18° |
| 2026-05-05 23:15 | 42.37593 | -71.00766 | 26 ft | 7 kts | 24° |
| 2026-05-05 23:15 | 42.37623 | -71.00726 | 25 ft | 0 kts | 65° |
| 2026-05-05 23:16 | 42.37661 | -71.00701 | 28 ft | 15 kts | 354° |
| 2026-05-05 23:16 | 42.37743 | -71.00691 | 28 ft | 10 kts | 18° |
| 2026-05-05 23:16 | 42.37810 | -71.00655 | 28 ft | 7 kts | 31° |
| 2026-05-05 23:16 | 42.37825 | -71.00640 | 28 ft | 4 kts | 40° |
| 2026-05-05 23:17 | 42.37842 | -71.00600 | 27 ft | 0 kts | 82° |
| 2026-05-05 23:17 | 42.37838 | -71.00587 | 27 ft | 8 kts | 114° |
| 2026-05-05 23:18 | 42.37783 | -71.00482 | 27 ft | 8 kts | 167° |
| 2026-05-05 23:18 | 42.37695 | -71.00515 | 29 ft | 18 kts | 199° |
| 2026-05-05 23:18 | 42.37338 | -71.00690 | 21 ft | 96 kts | 200° |
| 2026-05-05 23:18 | 42.36477 | -71.01104 | 64 ft | 162 kts | 200° |
| 2026-05-05 23:19 | 42.35348 | -71.01696 | 703 ft | 186 kts | 201° |
| 2026-05-05 23:19 | 42.34107 | -71.02070 | 1763 ft | 183 kts | 178° |
| 2026-05-05 23:19 | 42.32943 | -71.01150 | 2482 ft | 222 kts | 139° |
| 2026-05-05 23:19 | 42.32089 | -70.99314 | 3210 ft | 232 kts | 134° |
| 2026-05-05 23:20 | 42.31182 | -70.97493 | 4007 ft | 240 kts | 129° |
| 2026-05-05 23:20 | 42.30764 | -70.95175 | 4574 ft | 275 kts | 90° |
| 2026-05-05 23:20 | 42.31264 | -70.92529 | 4891 ft | 305 kts | 73° |
| 2026-05-05 23:20 | 42.31879 | -70.89775 | 5540 ft | 313 kts | 77° |
| 2026-05-05 23:21 | 42.32380 | -70.86901 | 6388 ft | 316 kts | 80° |
| 2026-05-05 23:21 | 42.32819 | -70.83984 | 7243 ft | 317 kts | 81° |
| 2026-05-05 23:21 | 42.33154 | -70.81040 | 8070 ft | 318 kts | 93° |
| 2026-05-05 23:21 | 42.32733 | -70.78157 | 8911 ft | 311 kts | 116° |
| 2026-05-05 23:22 | 42.31845 | -70.75491 | 9743 ft | 312 kts | 120° |
| 2026-05-05 23:22 | 42.30900 | -70.72824 | 10415 ft | 320 kts | 120° |
| 2026-05-05 23:22 | 42.29835 | -70.70067 | 10622 ft | 341 kts | 130° |
| 2026-05-05 23:22 | 42.28081 | -70.67872 | 10803 ft | 350 kts | 155° |
| 2026-05-05 23:23 | 42.25798 | -70.66615 | 11016 ft | 362 kts | 167° |
| 2026-05-05 23:23 | 42.23360 | -70.65565 | 11514 ft | 371 kts | 167° |
| 2026-05-05 23:23 | 42.20885 | -70.64485 | 12204 ft | 375 kts | 167° |
| 2026-05-05 23:23 | 42.18427 | -70.63379 | 12963 ft | 378 kts | 166° |
| 2026-05-05 23:24 | 42.15887 | -70.62234 | 13661 ft | 380 kts | 169° |
| 2026-05-05 23:24 | 42.13327 | -70.61824 | 14193 ft | 374 kts | 189° |
| 2026-05-05 23:24 | 42.10805 | -70.62546 | 14845 ft | 369 kts | 201° |
| 2026-05-05 23:24 | 42.08350 | -70.63631 | 15482 ft | 372 kts | 202° |
| 2026-05-05 23:25 | 42.05877 | -70.64770 | 16052 ft | 377 kts | 202° |
| 2026-05-05 23:25 | 42.03388 | -70.65914 | 16635 ft | 381 kts | 202° |
| 2026-05-05 23:25 | 42.00866 | -70.67055 | 17227 ft | 384 kts | 202° |
| 2026-05-05 23:25 | 41.98320 | -70.68190 | 17835 ft | 388 kts | 201° |
| 2026-05-05 23:26 | 41.95739 | -70.69330 | 18382 ft | 392 kts | 201° |
| 2026-05-05 23:26 | 41.93137 | -70.70472 | 18866 ft | 395 kts | 201° |
| 2026-05-05 23:26 | 41.90511 | -70.71621 | 19319 ft | 399 kts | 201° |
| 2026-05-05 23:26 | 41.87852 | -70.72785 | 19777 ft | 403 kts | 201° |
| 2026-05-05 23:27 | 41.85170 | -70.73957 | 20247 ft | 407 kts | 201° |
| 2026-05-05 23:27 | 41.82544 | -70.75260 | 20689 ft | 408 kts | 208° |
| 2026-05-05 23:27 | 41.80044 | -70.77068 | 21143 ft | 409 kts | 213° |
| 2026-05-05 23:27 | 41.77581 | -70.79007 | 21593 ft | 412 kts | 213° |
| 2026-05-05 23:28 | 41.75101 | -70.80964 | 22070 ft | 415 kts | 213° |
| 2026-05-05 23:28 | 41.72590 | -70.82913 | 22480 ft | 419 kts | 212° |
| 2026-05-05 23:28 | 41.70048 | -70.84851 | 22891 ft | 422 kts | 212° |
| 2026-05-05 23:28 | 41.67472 | -70.86789 | 23301 ft | 426 kts | 212° |
| 2026-05-05 23:29 | 41.64872 | -70.88733 | 23690 ft | 428 kts | 212° |
| 2026-05-05 23:29 | 41.62266 | -70.90679 | 24065 ft | 430 kts | 212° |
| 2026-05-05 23:29 | 41.59651 | -70.92631 | 24395 ft | 432 kts | 212° |
| 2026-05-05 23:29 | 41.57050 | -70.94677 | 24693 ft | 434 kts | 218° |
| 2026-05-05 23:30 | 41.54720 | -70.97217 | 25017 ft | 433 kts | 226° |
| 2026-05-05 23:30 | 41.52678 | -71.00157 | 25366 ft | 432 kts | 234° |
| 2026-05-05 23:30 | 41.50987 | -71.03405 | 25689 ft | 432 kts | 239° |
| 2026-05-05 23:30 | 41.49342 | -71.06767 | 26004 ft | 434 kts | 239° |
| 2026-05-05 23:31 | 41.47686 | -71.10154 | 26288 ft | 437 kts | 239° |
| 2026-05-05 23:31 | 41.46012 | -71.13547 | 26580 ft | 439 kts | 239° |
| 2026-05-05 23:31 | 41.44319 | -71.16950 | 26847 ft | 442 kts | 239° |
| 2026-05-05 23:31 | 41.42618 | -71.20348 | 27090 ft | 445 kts | 238° |
| 2026-05-05 23:32 | 41.40898 | -71.23771 | 27353 ft | 447 kts | 239° |
| 2026-05-05 23:32 | 41.39167 | -71.27212 | 27677 ft | 448 kts | 238° |
| 2026-05-05 23:32 | 41.37433 | -71.30654 | 28048 ft | 447 kts | 239° |
| 2026-05-05 23:32 | 41.35700 | -71.34090 | 28446 ft | 447 kts | 239° |
| 2026-05-05 23:33 | 41.33966 | -71.37522 | 28832 ft | 446 kts | 239° |
| 2026-05-05 23:33 | 41.32235 | -71.40942 | 29231 ft | 446 kts | 239° |
| 2026-05-05 23:33 | 41.30504 | -71.44359 | 29624 ft | 445 kts | 239° |
| 2026-05-05 23:33 | 41.28771 | -71.47775 | 30019 ft | 444 kts | 239° |
| 2026-05-05 23:34 | 41.27047 | -71.51174 | 30349 ft | 443 kts | 239° |
| 2026-05-05 23:34 | 41.25340 | -71.54535 | 30659 ft | 443 kts | 239° |
| 2026-05-05 23:34 | 41.23591 | -71.57975 | 30970 ft | 443 kts | 239° |
| 2026-05-05 23:34 | 41.21890 | -71.61317 | 31302 ft | 442 kts | 239° |
| 2026-05-05 23:35 | 41.20166 | -71.64699 | 31629 ft | 441 kts | 239° |
| 2026-05-05 23:35 | 41.18446 | -71.68073 | 31920 ft | 441 kts | 240° |
| 2026-05-05 23:35 | 41.16722 | -71.71451 | 32225 ft | 441 kts | 240° |
| 2026-05-05 23:35 | 41.15000 | -71.74819 | 32538 ft | 440 kts | 240° |
| 2026-05-05 23:36 | 41.13281 | -71.78182 | 32808 ft | 441 kts | 240° |
| 2026-05-05 23:36 | 41.11559 | -71.81553 | 33026 ft | 442 kts | 240° |
| 2026-05-05 23:36 | 41.09836 | -71.84928 | 33333 ft | 441 kts | 240° |
| 2026-05-05 23:36 | 41.08112 | -71.88299 | 33685 ft | 439 kts | 240° |
| 2026-05-05 23:37 | 41.06401 | -71.91645 | 33952 ft | 439 kts | 240° |
| 2026-05-05 23:37 | 41.04680 | -71.95004 | 33931 ft | 442 kts | 240° |
| 2026-05-05 23:37 | 41.01677 | -72.02028 | 33953 ft | 433 kts | 250° |
| 2026-05-05 23:38 | 40.99221 | -72.09242 | 33947 ft | 429 kts | 250° |
| 2026-05-05 23:38 | 40.96735 | -72.16415 | 33947 ft | 428 kts | 250° |
| 2026-05-05 23:39 | 40.94221 | -72.23530 | 33946 ft | 428 kts | 249° |
| 2026-05-05 23:39 | 40.91506 | -72.30562 | 33940 ft | 434 kts | 241° |
| 2026-05-05 23:40 | 40.87499 | -72.36624 | 33957 ft | 442 kts | 229° |
| 2026-05-05 23:40 | 40.83076 | -72.42285 | 33932 ft | 443 kts | 230° |
| 2026-05-05 23:41 | 40.78633 | -72.47950 | 33943 ft | 447 kts | 226° |
| 2026-05-05 23:41 | 40.73802 | -72.53085 | 33964 ft | 450 kts | 224° |
| 2026-05-05 23:42 | 40.68910 | -72.58278 | 33957 ft | 452 kts | 225° |
| 2026-05-05 23:42 | 40.64147 | -72.63672 | 33948 ft | 452 kts | 227° |
| 2026-05-05 23:43 | 40.59433 | -72.69160 | 33951 ft | 452 kts | 227° |
| 2026-05-05 23:43 | 40.55494 | -72.73716 | 33950 ft | 453 kts | 226° |
| 2026-05-05 23:44 | 40.50750 | -72.79161 | 33957 ft | 452 kts | 226° |
| 2026-05-05 23:44 | 40.46009 | -72.84581 | 33945 ft | 451 kts | 226° |
| 2026-05-05 23:45 | 40.41268 | -72.89991 | 33957 ft | 451 kts | 226° |
| 2026-05-05 23:45 | 40.36539 | -72.95379 | 33954 ft | 450 kts | 226° |
| 2026-05-05 23:46 | 40.31803 | -73.00764 | 33955 ft | 450 kts | 226° |
| 2026-05-05 23:46 | 40.27108 | -73.06095 | 33947 ft | 449 kts | 226° |
| 2026-05-05 23:47 | 40.22384 | -73.11443 | 33956 ft | 449 kts | 226° |
| 2026-05-05 23:47 | 40.17657 | -73.16779 | 33967 ft | 449 kts | 226° |
| 2026-05-05 23:48 | 40.12933 | -73.22108 | 33968 ft | 449 kts | 226° |
| 2026-05-05 23:48 | 40.08193 | -73.27442 | 33969 ft | 449 kts | 226° |
| 2026-05-05 23:49 | 40.03449 | -73.32760 | 33996 ft | 449 kts | 226° |
| 2026-05-05 23:49 | 39.98704 | -73.38071 | 33971 ft | 449 kts | 226° |
| 2026-05-05 23:50 | 39.93957 | -73.43377 | 33984 ft | 449 kts | 226° |
| 2026-05-05 23:50 | 39.89211 | -73.48674 | 33985 ft | 449 kts | 226° |
| 2026-05-05 23:51 | 39.84460 | -73.53964 | 33979 ft | 449 kts | 226° |
| 2026-05-05 23:51 | 39.79728 | -73.59221 | 33987 ft | 449 kts | 226° |
| 2026-05-05 23:52 | 39.74969 | -73.64499 | 33987 ft | 450 kts | 226° |
| 2026-05-05 23:52 | 39.70212 | -73.69768 | 33984 ft | 448 kts | 227° |
| 2026-05-05 23:53 | 39.65462 | -73.75018 | 33985 ft | 447 kts | 226° |
| 2026-05-05 23:53 | 39.60726 | -73.80245 | 33983 ft | 446 kts | 226° |
| 2026-05-05 23:54 | 39.55986 | -73.85470 | 33599 ft | 447 kts | 226° |
| 2026-05-05 23:54 | 39.53621 | -73.88071 | 33328 ft | 445 kts | 226° |
| 2026-05-05 23:54 | 39.51260 | -73.90666 | 33073 ft | 445 kts | 226° |
| 2026-05-05 23:55 | 39.48893 | -73.93266 | 32812 ft | 447 kts | 226° |
| 2026-05-05 23:55 | 39.46513 | -73.95878 | 32547 ft | 448 kts | 226° |
| 2026-05-05 23:55 | 39.44138 | -73.98483 | 32291 ft | 449 kts | 225° |
| 2026-05-05 23:55 | 39.41752 | -74.01094 | 32033 ft | 449 kts | 225° |
| 2026-05-05 23:56 | 39.39374 | -74.03696 | 31781 ft | 448 kts | 225° |
| 2026-05-05 23:56 | 39.36999 | -74.06295 | 31528 ft | 447 kts | 224° |
| 2026-05-05 23:56 | 39.34624 | -74.08894 | 31254 ft | 446 kts | 224° |
| 2026-05-05 23:56 | 39.32281 | -74.11457 | 31014 ft | 446 kts | 224° |
| 2026-05-05 23:57 | 39.29919 | -74.14038 | 30765 ft | 445 kts | 224° |
| 2026-05-05 23:57 | 39.27554 | -74.16620 | 30524 ft | 444 kts | 224° |
| 2026-05-05 23:57 | 39.25196 | -74.19193 | 30286 ft | 444 kts | 224° |
| 2026-05-05 23:57 | 39.22837 | -74.21764 | 30031 ft | 444 kts | 224° |
| 2026-05-05 23:58 | 39.20474 | -74.24336 | 29767 ft | 444 kts | 223° |
| 2026-05-05 23:58 | 39.18115 | -74.26903 | 29488 ft | 444 kts | 223° |
| 2026-05-05 23:58 | 39.15751 | -74.29472 | 29206 ft | 445 kts | 224° |
| 2026-05-05 23:58 | 39.13379 | -74.32049 | 28943 ft | 447 kts | 223° |
| 2026-05-05 23:59 | 39.11000 | -74.34630 | 28676 ft | 449 kts | 223° |
| 2026-05-05 23:59 | 39.08606 | -74.37226 | 28397 ft | 450 kts | 223° |
| 2026-05-05 23:59 | 39.06208 | -74.39822 | 28140 ft | 451 kts | 223° |
| 2026-05-05 23:59 | 39.03801 | -74.42426 | 27877 ft | 451 kts | 223° |
| 2026-05-06 00:00 | 39.01428 | -74.44993 | 27619 ft | 451 kts | 223° |
| 2026-05-06 00:00 | 38.99027 | -74.47585 | 27362 ft | 451 kts | 223° |
| 2026-05-06 00:00 | 38.96704 | -74.50293 | 27076 ft | 448 kts | 230° |
| 2026-05-06 00:00 | 38.94844 | -74.53472 | 26836 ft | 444 kts | 240° |
| 2026-05-06 00:01 | 38.93425 | -74.56955 | 26577 ft | 430 kts | 247° |
| 2026-05-06 00:01 | 38.92371 | -74.60453 | 26308 ft | 413 kts | 253° |
| 2026-05-06 00:01 | 38.91720 | -74.64030 | 26058 ft | 409 kts | 262° |
| 2026-05-06 00:01 | 38.91330 | -74.67642 | 25822 ft | 408 kts | 262° |
| 2026-05-06 00:02 | 38.90956 | -74.71246 | 25578 ft | 405 kts | 262° |
| 2026-05-06 00:02 | 38.90584 | -74.74824 | 25337 ft | 404 kts | 262° |
| 2026-05-06 00:02 | 38.90208 | -74.78388 | 25095 ft | 403 kts | 262° |
| 2026-05-06 00:02 | 38.89825 | -74.81956 | 24863 ft | 403 kts | 262° |
| 2026-05-06 00:03 | 38.89439 | -74.85508 | 24623 ft | 402 kts | 262° |
| 2026-05-06 00:03 | 38.89050 | -74.89059 | 24385 ft | 401 kts | 262° |
| 2026-05-06 00:03 | 38.88664 | -74.92551 | 24165 ft | 400 kts | 262° |
| 2026-05-06 00:03 | 38.88267 | -74.96124 | 23934 ft | 399 kts | 261° |
| 2026-05-06 00:04 | 38.87876 | -74.99642 | 23706 ft | 397 kts | 261° |
| 2026-05-06 00:04 | 38.87485 | -75.03134 | 23453 ft | 396 kts | 261° |
| 2026-05-06 00:04 | 38.87094 | -75.06625 | 23201 ft | 394 kts | 261° |
| 2026-05-06 00:04 | 38.86705 | -75.10095 | 22927 ft | 393 kts | 261° |
| 2026-05-06 00:05 | 38.85930 | -75.16962 | 22398 ft | 390 kts | 261° |
| 2026-05-06 00:05 | 38.85541 | -75.20397 | 22122 ft | 388 kts | 261° |
| 2026-05-06 00:05 | 38.85152 | -75.23824 | 21848 ft | 388 kts | 261° |
| 2026-05-06 00:06 | 38.84763 | -75.27244 | 21590 ft | 387 kts | 261° |
| 2026-05-06 00:06 | 38.84373 | -75.30657 | 21340 ft | 386 kts | 261° |
| 2026-05-06 00:06 | 38.83985 | -75.34049 | 21099 ft | 385 kts | 261° |
| 2026-05-06 00:06 | 38.83594 | -75.37459 | 20843 ft | 389 kts | 261° |
| 2026-05-06 00:07 | 38.83195 | -75.40917 | 20602 ft | 395 kts | 260° |
| 2026-05-06 00:07 | 38.82795 | -75.44393 | 20357 ft | 392 kts | 260° |
| 2026-05-06 00:07 | 38.82396 | -75.47843 | 20107 ft | 390 kts | 260° |
| 2026-05-06 00:07 | 38.81998 | -75.51280 | 19856 ft | 389 kts | 260° |
| 2026-05-06 00:08 | 38.81599 | -75.54706 | 19558 ft | 385 kts | 259° |
| 2026-05-06 00:08 | 38.81209 | -75.58061 | 19047 ft | 375 kts | 259° |
| 2026-05-06 00:08 | 38.80827 | -75.61338 | 18524 ft | 368 kts | 259° |
| 2026-05-06 00:08 | 38.80456 | -75.64505 | 17985 ft | 361 kts | 259° |
| 2026-05-06 00:09 | 38.80076 | -75.67734 | 17416 ft | 365 kts | 259° |
| 2026-05-06 00:09 | 38.79688 | -75.71012 | 16864 ft | 373 kts | 259° |
| 2026-05-06 00:09 | 38.79309 | -75.74223 | 16307 ft | 364 kts | 260° |
| 2026-05-06 00:09 | 38.78936 | -75.77387 | 15788 ft | 355 kts | 260° |
| 2026-05-06 00:10 | 38.78570 | -75.80483 | 15351 ft | 346 kts | 260° |
| 2026-05-06 00:10 | 38.78212 | -75.83497 | 14910 ft | 342 kts | 260° |
| 2026-05-06 00:10 | 38.77845 | -75.86562 | 14442 ft | 355 kts | 260° |
| 2026-05-06 00:10 | 38.77473 | -75.89675 | 13924 ft | 350 kts | 260° |
| 2026-05-06 00:11 | 38.77110 | -75.92714 | 13379 ft | 341 kts | 260° |
| 2026-05-06 00:11 | 38.76754 | -75.95685 | 12860 ft | 334 kts | 260° |
| 2026-05-06 00:11 | 38.76406 | -75.98591 | 12366 ft | 327 kts | 260° |
| 2026-05-06 00:11 | 38.76057 | -76.01488 | 11887 ft | 333 kts | 260° |
| 2026-05-06 00:12 | 38.75699 | -76.04447 | 11385 ft | 336 kts | 260° |
| 2026-05-06 00:12 | 38.75459 | -76.07433 | 11133 ft | 336 kts | 270° |
| 2026-05-06 00:12 | 38.75686 | -76.10406 | 11001 ft | 337 kts | 275° |
| 2026-05-06 00:12 | 38.75998 | -76.13391 | 11024 ft | 337 kts | 276° |
| 2026-05-06 00:13 | 38.76305 | -76.16311 | 11025 ft | 321 kts | 275° |
| 2026-05-06 00:13 | 38.76586 | -76.19057 | 11015 ft | 301 kts | 275° |
| 2026-05-06 00:13 | 38.76843 | -76.21640 | 11018 ft | 285 kts | 275° |
| 2026-05-06 00:13 | 38.77080 | -76.24092 | 11015 ft | 269 kts | 274° |
| 2026-05-06 00:14 | 38.77299 | -76.26394 | 10917 ft | 254 kts | 274° |
| 2026-05-06 00:14 | 38.77509 | -76.28636 | 10666 ft | 250 kts | 274° |
| 2026-05-06 00:14 | 38.77715 | -76.30862 | 10567 ft | 258 kts | 274° |
| 2026-05-06 00:14 | 38.77926 | -76.33160 | 10501 ft | 261 kts | 274° |
| 2026-05-06 00:15 | 38.78139 | -76.35462 | 10531 ft | 260 kts | 274° |
| 2026-05-06 00:15 | 38.78349 | -76.37736 | 10388 ft | 251 kts | 274° |
| 2026-05-06 00:15 | 38.78549 | -76.39896 | 10316 ft | 237 kts | 274° |
| 2026-05-06 00:15 | 38.78738 | -76.41933 | 10253 ft | 223 kts | 274° |
| 2026-05-06 00:16 | 38.78913 | -76.43845 | 10203 ft | 211 kts | 273° |
| 2026-05-06 00:16 | 38.79082 | -76.45689 | 10172 ft | 207 kts | 273° |
| 2026-05-06 00:16 | 38.79251 | -76.47562 | 10150 ft | 214 kts | 273° |
| 2026-05-06 00:16 | 38.79424 | -76.49481 | 10121 ft | 219 kts | 273° |
| 2026-05-06 00:17 | 38.79606 | -76.51502 | 10117 ft | 241 kts | 273° |
| 2026-05-06 00:17 | 38.79790 | -76.53728 | 10080 ft | 255 kts | 271° |
| 2026-05-06 00:17 | 38.79880 | -76.55966 | 9954 ft | 249 kts | 269° |
| 2026-05-06 00:17 | 38.79944 | -76.58166 | 9619 ft | 246 kts | 269° |
| 2026-05-06 00:18 | 38.80008 | -76.60367 | 9099 ft | 248 kts | 269° |
| 2026-05-06 00:18 | 38.80076 | -76.62576 | 8637 ft | 248 kts | 269° |
| 2026-05-06 00:18 | 38.80147 | -76.64787 | 8219 ft | 247 kts | 268° |
| 2026-05-06 00:18 | 38.80221 | -76.66981 | 7831 ft | 245 kts | 268° |
| 2026-05-06 00:19 | 38.80296 | -76.69156 | 7437 ft | 244 kts | 268° |
| 2026-05-06 00:19 | 38.80371 | -76.71325 | 7038 ft | 243 kts | 267° |
| 2026-05-06 00:19 | 38.80445 | -76.73500 | 6626 ft | 244 kts | 267° |
| 2026-05-06 00:19 | 38.80519 | -76.75640 | 6444 ft | 239 kts | 267° |
| 2026-05-06 00:20 | 38.80687 | -76.77761 | 6277 ft | 243 kts | 281° |
| 2026-05-06 00:20 | 38.81509 | -76.79699 | 6162 ft | 256 kts | 299° |
| 2026-05-06 00:20 | 38.82628 | -76.81519 | 6061 ft | 263 kts | 302° |
| 2026-05-06 00:20 | 38.83788 | -76.83328 | 6024 ft | 260 kts | 301° |
| 2026-05-06 00:21 | 38.84904 | -76.85078 | 5981 ft | 245 kts | 301° |
| 2026-05-06 00:21 | 38.85925 | -76.86693 | 5990 ft | 228 kts | 300° |
| 2026-05-06 00:21 | 38.86887 | -76.88228 | 5991 ft | 218 kts | 300° |
| 2026-05-06 00:21 | 38.87830 | -76.89751 | 6030 ft | 222 kts | 300° |
| 2026-05-06 00:22 | 38.88899 | -76.91246 | 6033 ft | 232 kts | 306° |
| 2026-05-06 00:22 | 38.90051 | -76.92698 | 6030 ft | 231 kts | 307° |
| 2026-05-06 00:22 | 38.91197 | -76.94127 | 5904 ft | 229 kts | 307° |
| 2026-05-06 00:22 | 38.92324 | -76.95540 | 5580 ft | 227 kts | 307° |
| 2026-05-06 00:23 | 38.93474 | -76.96999 | 4890 ft | 241 kts | 307° |
| 2026-05-06 00:23 | 38.94702 | -76.98567 | 4394 ft | 251 kts | 308° |
| 2026-05-06 00:23 | 38.95947 | -77.00150 | 4256 ft | 253 kts | 308° |
| 2026-05-06 00:23 | 38.97207 | -77.01756 | 4151 ft | 257 kts | 308° |
| 2026-05-06 00:24 | 38.98481 | -77.03382 | 4064 ft | 259 kts | 308° |
| 2026-05-06 00:24 | 38.99754 | -77.05009 | 4015 ft | 257 kts | 307° |
| 2026-05-06 00:24 | 39.01006 | -77.06610 | 4006 ft | 248 kts | 307° |
| 2026-05-06 00:24 | 39.02190 | -77.08120 | 3985 ft | 232 kts | 307° |
| 2026-05-06 00:25 | 39.03295 | -77.09530 | 4001 ft | 218 kts | 306° |
| 2026-05-06 00:25 | 39.04284 | -77.10935 | 4015 ft | 204 kts | 300° |
| 2026-05-06 00:25 | 39.05151 | -77.12360 | 4032 ft | 203 kts | 298° |
| 2026-05-06 00:25 | 39.05998 | -77.13802 | 4017 ft | 202 kts | 297° |
| 2026-05-06 00:26 | 39.06740 | -77.15297 | 4004 ft | 192 kts | 279° |
| 2026-05-06 00:26 | 39.06734 | -77.16880 | 4021 ft | 172 kts | 242° |
| 2026-05-06 00:26 | 39.05939 | -77.17952 | 4010 ft | 171 kts | 206° |
| 2026-05-06 00:26 | 39.04704 | -77.18120 | 3518 ft | 196 kts | 171° |
| 2026-05-06 00:27 | 39.03464 | -77.17405 | 3394 ft | 193 kts | 160° |
| 2026-05-06 00:27 | 39.02300 | -77.16595 | 3258 ft | 189 kts | 160° |
| 2026-05-06 00:27 | 39.01135 | -77.15771 | 3127 ft | 193 kts | 160° |
| 2026-05-06 00:27 | 39.00341 | -77.15206 | 3060 ft | 192 kts | 159° |
| 2026-05-06 00:28 | 38.99177 | -77.14367 | 3030 ft | 189 kts | 160° |
| 2026-05-06 00:28 | 38.97740 | -77.13292 | 2967 ft | 175 kts | 159° |
| 2026-05-06 00:28 | 38.97037 | -77.12755 | 2817 ft | 175 kts | 160° |
| 2026-05-06 00:28 | 38.95936 | -77.12024 | 2719 ft | 181 kts | 161° |
| 2026-05-06 00:29 | 38.94814 | -77.11162 | 2502 ft | 193 kts | 154° |
| 2026-05-06 00:29 | 38.93735 | -77.10150 | 2262 ft | 192 kts | 149° |
| 2026-05-06 00:29 | 38.92753 | -77.08981 | 1822 ft | 185 kts | 142° |
| 2026-05-06 00:29 | 38.91905 | -77.07824 | 1478 ft | 173 kts | 143° |
| 2026-05-06 00:30 | 38.91063 | -77.06826 | 1118 ft | 163 kts | 148° |
| 2026-05-06 00:30 | 38.90226 | -77.05924 | 896 ft | 150 kts | 145° |
| 2026-05-06 00:30 | 38.89475 | -77.05050 | 641 ft | 137 kts | 149° |
| 2026-05-06 00:30 | 38.88724 | -77.04436 | 412 ft | 122 kts | 160° |